createdAt,value
2019-05-23T00:03:34.506Z,14.86
2019-05-23T00:08:37.317Z,14.80
2019-05-23T00:13:56.753Z,14.74
2019-05-23T00:18:59.960Z,14.67
2019-05-23T00:24:03.321Z,14.61
2019-05-23T00:29:10.409Z,14.56
2019-05-23T00:34:13.932Z,14.50
2019-05-23T00:39:16.925Z,14.54
2019-05-23T00:44:19.299Z,14.57
2019-05-23T00:49:23.995Z,14.59
2019-05-23T00:54:26.543Z,14.60
2019-05-23T00:59:29.313Z,14.63
2019-05-23T01:04:33.125Z,14.60
2019-05-23T01:09:36.242Z,14.60
2019-05-23T01:14:38.849Z,14.62
2019-05-23T01:19:43.017Z,14.66
2019-05-23T01:24:47.608Z,14.69
2019-05-23T01:29:51.916Z,14.73
2019-05-23T01:34:56.550Z,14.73
2019-05-23T01:39:59.153Z,14.73
2019-05-23T01:45:02.076Z,14.74
2019-05-23T01:50:06.174Z,14.73
2019-05-23T01:55:09.218Z,14.72
2019-05-23T02:00:14.608Z,14.69
2019-05-23T02:05:17.917Z,14.67
2019-05-23T02:10:20.716Z,14.65
2019-05-23T02:15:30.786Z,14.73
2019-05-23T02:20:34.329Z,14.66
2019-05-23T02:25:36.375Z,14.62
2019-05-23T02:30:38.626Z,14.61
2019-05-23T02:35:40.771Z,14.60
2019-05-23T02:40:48.797Z,14.51
2019-05-23T02:45:54.960Z,14.48
2019-05-23T02:51:00.393Z,14.47
2019-05-23T02:56:08.118Z,14.49
2019-05-23T03:01:56.625Z,14.48
2019-05-23T03:07:00.751Z,14.49
2019-05-23T03:12:03.771Z,14.46
2019-05-23T03:17:11.470Z,14.44
2019-05-23T03:22:45.795Z,14.46
2019-05-23T03:27:48.569Z,14.36
2019-05-23T03:32:54.526Z,14.33
2019-05-23T03:37:58.320Z,14.30
2019-05-23T03:43:00.591Z,14.29
2019-05-23T03:48:05.436Z,14.30
2019-05-23T03:53:09.784Z,14.31
2019-05-23T03:58:13.815Z,14.37
2019-05-23T04:03:18.571Z,14.40
2019-05-23T04:08:21.748Z,14.41
2019-05-23T04:13:24.572Z,14.50
2019-05-23T04:18:26.859Z,14.61
2019-05-23T04:23:29.127Z,14.68
2019-05-23T04:28:31.481Z,14.77
2019-05-23T04:33:34.114Z,14.85
2019-05-23T04:38:36.762Z,14.89
2019-05-23T04:43:39.293Z,14.97
2019-05-23T04:48:42.259Z,15.03
2019-05-23T04:53:44.436Z,15.17
2019-05-23T04:58:47.272Z,15.31
2019-05-23T05:03:49.859Z,16.54
2019-05-23T05:08:54.120Z,17.39
2019-05-23T05:13:56.181Z,17.47
2019-05-23T05:18:58.286Z,19.27
2019-05-23T05:24:00.504Z,21.45
2019-05-23T05:29:02.613Z,22.75
2019-05-23T05:34:05.004Z,22.04
2019-05-23T05:39:08.681Z,21.65
2019-05-23T05:44:11.949Z,21.68
2019-05-23T05:49:14.526Z,21.94
2019-05-23T05:54:16.588Z,24.60
2019-05-23T05:59:18.646Z,25.07
2019-05-23T06:04:21.231Z,25.66
2019-05-23T06:09:27.926Z,24.59
2019-05-23T06:14:30.702Z,25.01
2019-05-23T06:19:33.079Z,24.09
2019-05-23T06:24:45.331Z,24.03
2019-05-23T06:29:39.041Z,25.08
2019-05-23T06:34:41.351Z,24.73
2019-05-23T06:39:43.439Z,25.30
2019-05-23T06:44:45.485Z,26.05
2019-05-23T06:49:47.518Z,27.78
2019-05-23T06:54:49.699Z,26.68
2019-05-23T06:59:51.795Z,25.75
2019-05-23T07:04:53.859Z,25.00
2019-05-23T07:09:56.913Z,24.39
2019-05-23T07:14:58.963Z,24.22
2019-05-23T07:20:01.498Z,23.97
2019-05-23T07:25:05.128Z,23.67
2019-05-23T07:30:11.485Z,24.22
2019-05-23T07:35:13.936Z,24.59
2019-05-23T07:40:17.059Z,23.92
2019-05-23T07:45:23.444Z,23.90
2019-05-23T07:50:25.770Z,24.17
2019-05-23T07:55:41.818Z,24.13
2019-05-23T08:00:55.953Z,23.83
2019-05-23T08:05:59.689Z,23.83
2019-05-23T08:11:02.098Z,23.60
2019-05-23T08:16:06.350Z,23.39
2019-05-23T08:21:10.902Z,23.48
2019-05-23T08:26:15.190Z,23.47
2019-05-23T08:31:18.150Z,23.30
2019-05-23T08:36:23.952Z,23.39
2019-05-23T08:41:32.071Z,23.20
2019-05-23T08:46:36.173Z,23.23
2019-05-23T08:51:40.215Z,23.14
2019-05-23T08:56:42.386Z,22.91
2019-05-23T09:01:44.729Z,22.85
2019-05-23T09:06:46.832Z,22.71
2019-05-23T09:11:48.930Z,22.57
2019-05-23T09:16:51.324Z,22.78
2019-05-23T09:21:57.764Z,23.03
2019-05-23T09:26:58.040Z,22.91
2019-05-23T09:32:00.466Z,22.85
2019-05-23T09:37:04.505Z,22.99
2019-05-23T09:42:06.515Z,22.93
2019-05-23T09:47:08.641Z,22.97
2019-05-23T09:52:12.426Z,22.88
2019-05-23T09:57:15.256Z,22.88
2019-05-23T10:02:18.573Z,23.02
2019-05-23T10:07:20.987Z,23.05
2019-05-23T10:12:23.084Z,22.81
2019-05-23T10:17:25.375Z,22.73
2019-05-23T10:22:27.721Z,22.77
2019-05-23T10:27:30.036Z,22.81
2019-05-23T10:32:32.256Z,23.00
2019-05-23T10:37:34.554Z,23.06
2019-05-23T10:42:37.119Z,23.31
2019-05-23T10:47:39.230Z,23.35
2019-05-23T10:52:41.560Z,23.46
2019-05-23T10:57:43.610Z,23.55
2019-05-23T11:02:46.180Z,23.70
2019-05-23T11:07:49.214Z,23.72
2019-05-23T11:12:51.313Z,23.56
2019-05-23T11:17:54.230Z,23.67
2019-05-23T11:22:56.410Z,23.62
2019-05-23T11:28:00.954Z,23.66
2019-05-23T11:33:03.231Z,23.61
2019-05-23T11:38:05.443Z,23.58
2019-05-23T11:43:07.642Z,23.67
2019-05-23T11:48:10.278Z,23.46
2019-05-23T11:53:12.683Z,23.45
2019-05-23T11:58:14.832Z,23.49
2019-05-23T12:03:17.491Z,23.67
2019-05-23T12:08:19.654Z,23.76
2019-05-23T12:13:21.864Z,23.78
2019-05-23T12:18:24.039Z,23.90
2019-05-23T12:23:26.146Z,23.96
2019-05-23T12:28:28.802Z,23.78
2019-05-23T12:33:30.898Z,23.75
2019-05-23T12:38:32.961Z,23.74
2019-05-23T12:43:35.046Z,23.72
2019-05-23T12:48:45.017Z,23.54
2019-05-23T12:53:47.285Z,23.41
2019-05-23T12:58:49.740Z,23.46
2019-05-23T13:03:52.224Z,23.55
2019-05-23T13:08:54.696Z,23.52
2019-05-23T13:13:56.764Z,23.48
2019-05-23T13:18:58.843Z,23.16
2019-05-23T13:24:01.080Z,23.14
2019-05-23T13:29:03.462Z,23.21
2019-05-23T13:34:05.591Z,23.29
2019-05-23T13:39:09.075Z,23.27
2019-05-23T13:44:29.681Z,23.23
2019-05-23T13:49:15.323Z,23.17
2019-05-23T13:54:18.480Z,23.00
2019-05-23T13:59:20.696Z,23.09
2019-05-23T14:04:23.319Z,23.11
2019-05-23T14:09:27.024Z,23.08
2019-05-23T14:14:29.112Z,22.98
2019-05-23T14:19:31.182Z,23.00
2019-05-23T14:24:37.454Z,22.92
2019-05-23T14:29:37.310Z,23.01
2019-05-23T14:34:39.369Z,22.85
2019-05-23T14:39:48.850Z,22.71
2019-05-23T14:44:51.647Z,22.59
2019-05-23T14:50:11.120Z,22.52
2019-05-23T14:55:13.940Z,22.57
2019-05-23T15:00:18.082Z,22.60
2019-05-23T15:05:20.670Z,22.61
2019-05-23T15:10:23.764Z,22.56
2019-05-23T15:15:25.986Z,22.49
2019-05-23T15:20:28.463Z,22.51
2019-05-23T15:25:30.576Z,22.47
2019-05-23T15:30:32.793Z,22.45
2019-05-23T15:35:35.043Z,22.39
2019-05-23T15:40:37.299Z,22.22
2019-05-23T15:45:39.823Z,22.21
2019-05-23T15:50:49.054Z,22.21
2019-05-23T15:56:26.642Z,22.12
2019-05-23T16:01:24.663Z,22.05
2019-05-23T16:06:28.227Z,22.02
2019-05-23T16:11:30.907Z,22.07
2019-05-23T16:16:33.938Z,21.99
2019-05-23T16:21:38.136Z,21.90
2019-05-23T16:26:40.955Z,21.83
2019-05-23T16:31:43.858Z,21.85
2019-05-23T16:36:46.285Z,21.86
2019-05-23T16:41:48.338Z,21.88
2019-05-23T16:46:50.451Z,21.88
2019-05-23T16:51:52.485Z,21.85
2019-05-23T16:57:04.775Z,21.78
2019-05-23T17:02:21.733Z,21.76
2019-05-23T17:07:45.234Z,21.74
2019-05-23T17:12:55.958Z,21.67
2019-05-23T17:18:10.890Z,21.63
2019-05-23T17:23:31.042Z,21.59
2019-05-23T17:28:40.832Z,21.52
2019-05-23T17:33:44.273Z,21.44
2019-05-23T17:38:48.862Z,21.47
2019-05-23T17:43:50.970Z,21.44
2019-05-23T17:48:53.129Z,21.44
2019-05-23T17:53:57.384Z,21.41
2019-05-23T17:58:59.482Z,21.37
2019-05-23T18:04:06.302Z,21.31
2019-05-23T18:09:09.067Z,21.23
2019-05-23T18:14:11.652Z,21.15
2019-05-23T18:19:17.153Z,21.08
2019-05-23T18:24:23.171Z,21.05
2019-05-23T18:29:26.203Z,21.02
2019-05-23T18:34:32.390Z,20.97
2019-05-23T18:39:34.700Z,20.88
2019-05-23T18:44:37.316Z,20.79
2019-05-23T18:49:39.477Z,20.73
2019-05-23T18:54:43.674Z,20.61
2019-05-23T18:59:46.496Z,20.55
2019-05-23T19:04:50.546Z,20.46
2019-05-23T19:09:53.190Z,20.38
2019-05-23T19:14:55.407Z,20.30
2019-05-23T19:19:57.938Z,20.20
2019-05-23T19:25:03.706Z,20.13
2019-05-23T19:30:07.707Z,20.05
2019-05-23T19:35:11.741Z,19.97
2019-05-23T19:40:15.143Z,19.91
2019-05-23T19:45:17.174Z,19.83
2019-05-23T19:50:21.491Z,19.75
2019-05-23T19:55:24.042Z,19.69
2019-05-23T20:00:32.163Z,19.60
2019-05-23T20:05:36.777Z,19.54
2019-05-23T20:10:39.541Z,19.46
2019-05-23T20:15:45.732Z,19.39
2019-05-23T20:20:46.118Z,19.30
2019-05-23T20:25:48.661Z,19.24
2019-05-23T20:30:55.034Z,19.16
2019-05-23T20:36:02.210Z,19.10
2019-05-23T20:41:24.091Z,19.06
2019-05-23T20:46:26.398Z,18.99
2019-05-23T20:51:29.224Z,18.91
2019-05-23T20:56:31.456Z,18.86
2019-05-23T21:01:37.537Z,18.80
2019-05-23T21:06:39.605Z,18.73
2019-05-23T21:11:41.653Z,18.68
2019-05-23T21:16:43.698Z,18.64
2019-05-23T21:21:45.753Z,18.58
2019-05-23T21:26:47.817Z,18.53
2019-05-23T21:31:49.927Z,18.46
2019-05-23T21:36:52.118Z,18.42
2019-05-23T21:41:54.223Z,18.35
2019-05-23T21:46:56.424Z,18.29
2019-05-23T21:51:58.554Z,18.25
2019-05-23T21:57:00.636Z,18.26
2019-05-23T22:02:15.685Z,18.28
2019-05-23T22:07:17.738Z,18.25
2019-05-23T22:12:19.810Z,18.24
2019-05-23T22:17:23.824Z,18.22
2019-05-23T22:22:26.365Z,18.16
2019-05-23T22:27:28.697Z,18.12
2019-05-23T22:32:32.667Z,18.10
2019-05-23T22:37:34.962Z,18.05
2019-05-23T22:42:37.961Z,17.99
2019-05-23T22:47:39.988Z,17.96
2019-05-23T22:52:42.000Z,17.91
2019-05-23T22:57:44.086Z,17.91
2019-05-23T23:02:46.357Z,17.90
2019-05-23T23:07:48.804Z,17.84
2019-05-23T23:12:51.081Z,17.77
2019-05-23T23:17:53.213Z,17.74
2019-05-23T23:22:55.242Z,17.70
2019-05-23T23:27:57.324Z,17.66
2019-05-23T23:32:59.386Z,17.60
2019-05-23T23:38:01.436Z,17.51
2019-05-23T23:43:03.472Z,17.47
2019-05-23T23:48:23.595Z,17.40
2019-05-23T23:53:43.880Z,17.35
2019-05-23T23:58:45.570Z,17.26
